sensor_id;sensor_type;location;lat;lon;timestamp;P1;durP1;ratioP1;P2;durP2;ratioP2
72117;SDS011;59992;47.490;8.736;2023-09-19T00:01:37;1.90;;;0.80;;
72117;SDS011;59992;47.490;8.736;2023-09-19T00:04:27;3.20;;;1.00;;
72117;SDS011;59992;47.490;8.736;2023-09-19T00:07:19;2.80;;;0.80;;
72117;SDS011;59992;47.490;8.736;2023-09-19T00:10:09;2.80;;;1.00;;
72117;SDS011;59992;47.490;8.736;2023-09-19T00:12:59;2.30;;;0.90;;
72117;SDS011;59992;47.490;8.736;2023-09-19T00:15:52;2.20;;;1.00;;
72117;SDS011;59992;47.490;8.736;2023-09-19T00:18:42;2.90;;;0.80;;
72117;SDS011;59992;47.490;8.736;2023-09-19T00:21:32;2.20;;;0.90;;
72117;SDS011;59992;47.490;8.736;2023-09-19T00:24:25;2.70;;;1.00;;
72117;SDS011;59992;47.490;8.736;2023-09-19T00:27:16;2.60;;;0.90;;
72117;SDS011;59992;47.490;8.736;2023-09-19T00:30:07;2.70;;;0.90;;
72117;SDS011;59992;47.490;8.736;2023-09-19T00:33:01;1.90;;;1.00;;
72117;SDS011;59992;47.490;8.736;2023-09-19T00:35:54;2.80;;;0.70;;
72117;SDS011;59992;47.490;8.736;2023-09-19T00:38:44;4.10;;;1.00;;
72117;SDS011;59992;47.490;8.736;2023-09-19T00:41:34;2.70;;;0.90;;
72117;SDS011;59992;47.490;8.736;2023-09-19T00:44:25;3.00;;;0.80;;
72117;SDS011;59992;47.490;8.736;2023-09-19T00:47:15;2.70;;;0.90;;
72117;SDS011;59992;47.490;8.736;2023-09-19T00:50:05;1.80;;;0.90;;
72117;SDS011;59992;47.490;8.736;2023-09-19T00:52:57;2.60;;;0.90;;
72117;SDS011;59992;47.490;8.736;2023-09-19T00:55:48;2.40;;;1.10;;
72117;SDS011;59992;47.490;8.736;2023-09-19T00:58:39;3.00;;;0.80;;
72117;SDS011;59992;47.490;8.736;2023-09-19T01:01:29;1.90;;;0.80;;
72117;SDS011;59992;47.490;8.736;2023-09-19T01:04:19;2.80;;;0.90;;
72117;SDS011;59992;47.490;8.736;2023-09-19T01:07:10;2.70;;;0.80;;
72117;SDS011;59992;47.490;8.736;2023-09-19T01:10:02;1.80;;;0.90;;
72117;SDS011;59992;47.490;8.736;2023-09-19T01:12:58;1.90;;;0.90;;
72117;SDS011;59992;47.490;8.736;2023-09-19T01:15:55;2.00;;;1.10;;
72117;SDS011;59992;47.490;8.736;2023-09-19T01:18:55;2.20;;;0.90;;
72117;SDS011;59992;47.490;8.736;2023-09-19T01:21:59;3.20;;;1.00;;
72117;SDS011;59992;47.490;8.736;2023-09-19T01:25:16;3.70;;;0.90;;
72117;SDS011;59992;47.490;8.736;2023-09-19T01:28:32;2.30;;;1.10;;
72117;SDS011;59992;47.490;8.736;2023-09-19T01:31:35;2.80;;;0.90;;
72117;SDS011;59992;47.490;8.736;2023-09-19T01:34:28;1.70;;;1.00;;
72117;SDS011;59992;47.490;8.736;2023-09-19T01:37:35;2.20;;;0.80;;
72117;SDS011;59992;47.490;8.736;2023-09-19T01:40:25;2.20;;;0.90;;
72117;SDS011;59992;47.490;8.736;2023-09-19T01:43:16;2.40;;;1.00;;
72117;SDS011;59992;47.490;8.736;2023-09-19T01:46:12;2.70;;;1.00;;
72117;SDS011;59992;47.490;8.736;2023-09-19T01:49:10;4.00;;;1.10;;
72117;SDS011;59992;47.490;8.736;2023-09-19T01:52:11;2.40;;;1.00;;
72117;SDS011;59992;47.490;8.736;2023-09-19T01:55:05;2.70;;;1.00;;
72117;SDS011;59992;47.490;8.736;2023-09-19T01:58:01;2.20;;;0.90;;
72117;SDS011;59992;47.490;8.736;2023-09-19T02:00:54;4.20;;;1.10;;
72117;SDS011;59992;47.490;8.736;2023-09-19T02:03:46;1.70;;;0.90;;
72117;SDS011;59992;47.490;8.736;2023-09-19T02:06:40;2.00;;;1.00;;
72117;SDS011;59992;47.490;8.736;2023-09-19T02:09:30;3.10;;;1.10;;
72117;SDS011;59992;47.490;8.736;2023-09-19T02:12:22;2.00;;;1.10;;
72117;SDS011;59992;47.490;8.736;2023-09-19T02:15:12;3.30;;;1.00;;
72117;SDS011;59992;47.490;8.736;2023-09-19T02:18:04;2.10;;;0.80;;
72117;SDS011;59992;47.490;8.736;2023-09-19T02:20:54;4.40;;;1.40;;
72117;SDS011;59992;47.490;8.736;2023-09-19T02:23:46;5.10;;;1.20;;
72117;SDS011;59992;47.490;8.736;2023-09-19T02:26:36;6.20;;;1.40;;
72117;SDS011;59992;47.490;8.736;2023-09-19T02:29:27;2.10;;;1.10;;
72117;SDS011;59992;47.490;8.736;2023-09-19T02:32:17;1.90;;;1.10;;
72117;SDS011;59992;47.490;8.736;2023-09-19T02:35:08;3.90;;;1.20;;
72117;SDS011;59992;47.490;8.736;2023-09-19T02:37:59;3.30;;;1.30;;
72117;SDS011;59992;47.490;8.736;2023-09-19T02:40:49;5.60;;;1.20;;
72117;SDS011;59992;47.490;8.736;2023-09-19T02:43:40;3.90;;;1.10;;
72117;SDS011;59992;47.490;8.736;2023-09-19T02:46:30;2.30;;;1.20;;
72117;SDS011;59992;47.490;8.736;2023-09-19T02:49:20;2.60;;;1.10;;
72117;SDS011;59992;47.490;8.736;2023-09-19T02:52:10;7.60;;;1.10;;
72117;SDS011;59992;47.490;8.736;2023-09-19T02:55:01;4.80;;;0.90;;
72117;SDS011;59992;47.490;8.736;2023-09-19T02:57:53;3.80;;;1.20;;
72117;SDS011;59992;47.490;8.736;2023-09-19T03:00:44;5.80;;;1.10;;
72117;SDS011;59992;47.490;8.736;2023-09-19T03:03:34;2.70;;;0.90;;
72117;SDS011;59992;47.490;8.736;2023-09-19T03:06:26;2.10;;;1.00;;
72117;SDS011;59992;47.490;8.736;2023-09-19T03:09:18;3.50;;;1.00;;
72117;SDS011;59992;47.490;8.736;2023-09-19T03:12:09;2.80;;;0.90;;
72117;SDS011;59992;47.490;8.736;2023-09-19T03:15:04;2.30;;;0.90;;
72117;SDS011;59992;47.490;8.736;2023-09-19T03:17:55;2.60;;;0.80;;
72117;SDS011;59992;47.490;8.736;2023-09-19T03:20:53;3.30;;;1.10;;
72117;SDS011;59992;47.490;8.736;2023-09-19T03:23:43;1.60;;;1.00;;
72117;SDS011;59992;47.490;8.736;2023-09-19T03:26:34;2.80;;;1.10;;
72117;SDS011;59992;47.490;8.736;2023-09-19T03:29:25;4.00;;;0.90;;
72117;SDS011;59992;47.490;8.736;2023-09-19T03:32:15;2.40;;;0.80;;
72117;SDS011;59992;47.490;8.736;2023-09-19T03:35:05;2.20;;;0.80;;
72117;SDS011;59992;47.490;8.736;2023-09-19T03:37:58;2.10;;;1.00;;
72117;SDS011;59992;47.490;8.736;2023-09-19T03:40:48;1.70;;;1.00;;
72117;SDS011;59992;47.490;8.736;2023-09-19T03:43:38;2.80;;;1.10;;
72117;SDS011;59992;47.490;8.736;2023-09-19T03:46:28;3.10;;;1.00;;
72117;SDS011;59992;47.490;8.736;2023-09-19T03:49:19;2.00;;;1.00;;
72117;SDS011;59992;47.490;8.736;2023-09-19T03:52:09;1.30;;;0.90;;
72117;SDS011;59992;47.490;8.736;2023-09-19T03:54:59;2.10;;;0.90;;
72117;SDS011;59992;47.490;8.736;2023-09-19T03:57:51;4.10;;;0.90;;
72117;SDS011;59992;47.490;8.736;2023-09-19T04:00:41;3.20;;;0.90;;
72117;SDS011;59992;47.490;8.736;2023-09-19T04:03:31;1.40;;;0.80;;
72117;SDS011;59992;47.490;8.736;2023-09-19T04:06:33;1.10;;;0.70;;
72117;SDS011;59992;47.490;8.736;2023-09-19T04:09:23;2.70;;;0.90;;
72117;SDS011;59992;47.490;8.736;2023-09-19T04:12:13;3.50;;;0.90;;
72117;SDS011;59992;47.490;8.736;2023-09-19T04:15:04;2.50;;;0.80;;
72117;SDS011;59992;47.490;8.736;2023-09-19T04:17:56;2.70;;;0.70;;
72117;SDS011;59992;47.490;8.736;2023-09-19T04:20:48;3.00;;;0.90;;
72117;SDS011;59992;47.490;8.736;2023-09-19T04:23:38;3.90;;;1.40;;
72117;SDS011;59992;47.490;8.736;2023-09-19T04:26:28;3.10;;;0.80;;
72117;SDS011;59992;47.490;8.736;2023-09-19T04:29:19;1.60;;;1.00;;
72117;SDS011;59992;47.490;8.736;2023-09-19T04:32:09;1.90;;;0.80;;
72117;SDS011;59992;47.490;8.736;2023-09-19T04:35:00;2.60;;;0.80;;
72117;SDS011;59992;47.490;8.736;2023-09-19T04:37:53;2.20;;;0.70;;
72117;SDS011;59992;47.490;8.736;2023-09-19T04:40:43;3.80;;;1.10;;
72117;SDS011;59992;47.490;8.736;2023-09-19T04:43:34;2.40;;;0.80;;
72117;SDS011;59992;47.490;8.736;2023-09-19T04:46:24;1.70;;;0.70;;
72117;SDS011;59992;47.490;8.736;2023-09-19T04:49:14;1.30;;;0.70;;
72117;SDS011;59992;47.490;8.736;2023-09-19T04:52:05;1.80;;;0.70;;
72117;SDS011;59992;47.490;8.736;2023-09-19T04:54:55;2.00;;;0.70;;
72117;SDS011;59992;47.490;8.736;2023-09-19T04:57:45;1.20;;;0.60;;
72117;SDS011;59992;47.490;8.736;2023-09-19T05:00:37;2.70;;;0.60;;
72117;SDS011;59992;47.490;8.736;2023-09-19T05:03:27;1.70;;;0.60;;
72117;SDS011;59992;47.490;8.736;2023-09-19T05:06:17;2.20;;;0.70;;
72117;SDS011;59992;47.490;8.736;2023-09-19T05:09:08;1.50;;;0.80;;
72117;SDS011;59992;47.490;8.736;2023-09-19T05:11:58;2.40;;;0.70;;
72117;SDS011;59992;47.490;8.736;2023-09-19T05:14:48;2.90;;;0.70;;
72117;SDS011;59992;47.490;8.736;2023-09-19T05:17:38;2.30;;;0.60;;
72117;SDS011;59992;47.490;8.736;2023-09-19T05:20:28;2.00;;;0.80;;
72117;SDS011;59992;47.490;8.736;2023-09-19T05:23:20;2.40;;;0.90;;
72117;SDS011;59992;47.490;8.736;2023-09-19T05:26:11;2.40;;;0.80;;
72117;SDS011;59992;47.490;8.736;2023-09-19T05:29:03;2.90;;;0.70;;
72117;SDS011;59992;47.490;8.736;2023-09-19T05:31:55;1.70;;;0.80;;
72117;SDS011;59992;47.490;8.736;2023-09-19T05:34:45;4.00;;;0.90;;
72117;SDS011;59992;47.490;8.736;2023-09-19T05:37:36;2.60;;;0.80;;
72117;SDS011;59992;47.490;8.736;2023-09-19T05:40:27;2.10;;;0.60;;
72117;SDS011;59992;47.490;8.736;2023-09-19T05:43:17;2.30;;;0.70;;
72117;SDS011;59992;47.490;8.736;2023-09-19T05:46:07;2.60;;;0.70;;
72117;SDS011;59992;47.490;8.736;2023-09-19T05:48:58;1.70;;;0.60;;
72117;SDS011;59992;47.490;8.736;2023-09-19T05:51:48;1.10;;;0.60;;
72117;SDS011;59992;47.490;8.736;2023-09-19T05:54:41;2.10;;;0.70;;
72117;SDS011;59992;47.490;8.736;2023-09-19T05:57:32;1.70;;;0.60;;
72117;SDS011;59992;47.490;8.736;2023-09-19T06:00:36;1.70;;;0.70;;
72117;SDS011;59992;47.490;8.736;2023-09-19T06:03:26;1.10;;;0.70;;
72117;SDS011;59992;47.490;8.736;2023-09-19T06:06:19;1.40;;;0.70;;
72117;SDS011;59992;47.490;8.736;2023-09-19T06:09:12;1.60;;;0.60;;
72117;SDS011;59992;47.490;8.736;2023-09-19T06:12:02;1.00;;;0.60;;
72117;SDS011;59992;47.490;8.736;2023-09-19T06:14:53;1.80;;;0.50;;
72117;SDS011;59992;47.490;8.736;2023-09-19T06:17:44;1.60;;;0.60;;
72117;SDS011;59992;47.490;8.736;2023-09-19T06:20:36;1.00;;;0.40;;
72117;SDS011;59992;47.490;8.736;2023-09-19T06:23:32;1.30;;;0.50;;
72117;SDS011;59992;47.490;8.736;2023-09-19T06:26:22;1.90;;;0.60;;
72117;SDS011;59992;47.490;8.736;2023-09-19T06:29:14;1.50;;;0.70;;
72117;SDS011;59992;47.490;8.736;2023-09-19T06:32:06;3.30;;;0.70;;
72117;SDS011;59992;47.490;8.736;2023-09-19T06:34:57;0.90;;;0.50;;
72117;SDS011;59992;47.490;8.736;2023-09-19T06:37:47;2.30;;;0.50;;
72117;SDS011;59992;47.490;8.736;2023-09-19T06:40:38;1.60;;;0.70;;
72117;SDS011;59992;47.490;8.736;2023-09-19T06:43:30;1.50;;;0.60;;
72117;SDS011;59992;47.490;8.736;2023-09-19T06:46:21;1.50;;;0.70;;
72117;SDS011;59992;47.490;8.736;2023-09-19T06:49:12;1.60;;;0.60;;
72117;SDS011;59992;47.490;8.736;2023-09-19T06:52:03;1.90;;;0.60;;
72117;SDS011;59992;47.490;8.736;2023-09-19T06:54:53;0.90;;;0.50;;
72117;SDS011;59992;47.490;8.736;2023-09-19T06:57:44;1.80;;;0.60;;
72117;SDS011;59992;47.490;8.736;2023-09-19T07:00:35;2.90;;;0.60;;
72117;SDS011;59992;47.490;8.736;2023-09-19T07:03:25;1.80;;;0.50;;
72117;SDS011;59992;47.490;8.736;2023-09-19T07:06:16;1.30;;;0.50;;
72117;SDS011;59992;47.490;8.736;2023-09-19T07:09:06;1.70;;;0.50;;
72117;SDS011;59992;47.490;8.736;2023-09-19T07:11:57;3.00;;;0.70;;
72117;SDS011;59992;47.490;8.736;2023-09-19T07:14:48;1.30;;;0.50;;
72117;SDS011;59992;47.490;8.736;2023-09-19T07:17:39;1.50;;;0.60;;
72117;SDS011;59992;47.490;8.736;2023-09-19T07:20:29;2.10;;;0.50;;
72117;SDS011;59992;47.490;8.736;2023-09-19T07:23:20;1.80;;;0.50;;
72117;SDS011;59992;47.490;8.736;2023-09-19T07:26:11;2.30;;;0.60;;
72117;SDS011;59992;47.490;8.736;2023-09-19T07:29:02;1.90;;;0.60;;
72117;SDS011;59992;47.490;8.736;2023-09-19T07:31:54;2.10;;;0.70;;
72117;SDS011;59992;47.490;8.736;2023-09-19T07:34:44;3.00;;;0.70;;
72117;SDS011;59992;47.490;8.736;2023-09-19T07:37:34;2.30;;;0.60;;
72117;SDS011;59992;47.490;8.736;2023-09-19T07:40:24;2.50;;;0.60;;
72117;SDS011;59992;47.490;8.736;2023-09-19T07:43:16;1.00;;;0.60;;
72117;SDS011;59992;47.490;8.736;2023-09-19T07:46:06;1.00;;;0.60;;
72117;SDS011;59992;47.490;8.736;2023-09-19T07:48:58;1.40;;;0.60;;
72117;SDS011;59992;47.490;8.736;2023-09-19T07:51:48;0.90;;;0.50;;
72117;SDS011;59992;47.490;8.736;2023-09-19T07:54:42;0.70;;;0.50;;
72117;SDS011;59992;47.490;8.736;2023-09-19T07:57:37;2.40;;;0.70;;
72117;SDS011;59992;47.490;8.736;2023-09-19T08:00:28;1.60;;;0.60;;
72117;SDS011;59992;47.490;8.736;2023-09-19T08:03:20;2.50;;;0.80;;
72117;SDS011;59992;47.490;8.736;2023-09-19T08:06:11;1.20;;;0.60;;
72117;SDS011;59992;47.490;8.736;2023-09-19T08:09:02;1.70;;;0.60;;
72117;SDS011;59992;47.490;8.736;2023-09-19T08:11:56;1.40;;;0.60;;
72117;SDS011;59992;47.490;8.736;2023-09-19T08:14:46;1.80;;;0.50;;
72117;SDS011;59992;47.490;8.736;2023-09-19T08:17:37;1.20;;;0.50;;
72117;SDS011;59992;47.490;8.736;2023-09-19T08:20:27;2.40;;;0.70;;
72117;SDS011;59992;47.490;8.736;2023-09-19T08:23:18;2.10;;;0.70;;
72117;SDS011;59992;47.490;8.736;2023-09-19T08:26:09;1.90;;;0.60;;
72117;SDS011;59992;47.490;8.736;2023-09-19T08:28:59;5.20;;;0.70;;
72117;SDS011;59992;47.490;8.736;2023-09-19T08:31:53;2.10;;;0.60;;
72117;SDS011;59992;47.490;8.736;2023-09-19T08:34:44;2.80;;;0.70;;
72117;SDS011;59992;47.490;8.736;2023-09-19T08:37:34;1.00;;;0.60;;
72117;SDS011;59992;47.490;8.736;2023-09-19T08:40:25;2.60;;;0.80;;
72117;SDS011;59992;47.490;8.736;2023-09-19T08:43:16;2.50;;;0.70;;
72117;SDS011;59992;47.490;8.736;2023-09-19T08:46:10;1.40;;;0.70;;
72117;SDS011;59992;47.490;8.736;2023-09-19T08:49:04;2.00;;;0.60;;
72117;SDS011;59992;47.490;8.736;2023-09-19T08:51:59;3.30;;;0.80;;
72117;SDS011;59992;47.490;8.736;2023-09-19T08:54:55;1.20;;;0.60;;
72117;SDS011;59992;47.490;8.736;2023-09-19T08:57:51;2.00;;;0.80;;
72117;SDS011;59992;47.490;8.736;2023-09-19T09:00:47;1.00;;;0.50;;
72117;SDS011;59992;47.490;8.736;2023-09-19T09:03:39;1.80;;;0.60;;
72117;SDS011;59992;47.490;8.736;2023-09-19T09:06:33;1.90;;;0.80;;
72117;SDS011;59992;47.490;8.736;2023-09-19T09:09:24;1.40;;;0.60;;
72117;SDS011;59992;47.490;8.736;2023-09-19T09:12:16;2.80;;;0.80;;
72117;SDS011;59992;47.490;8.736;2023-09-19T09:15:08;2.40;;;0.80;;
72117;SDS011;59992;47.490;8.736;2023-09-19T09:18:04;1.00;;;0.60;;
72117;SDS011;59992;47.490;8.736;2023-09-19T09:20:54;1.30;;;0.70;;
72117;SDS011;59992;47.490;8.736;2023-09-19T09:23:44;2.60;;;0.80;;
72117;SDS011;59992;47.490;8.736;2023-09-19T09:26:44;1.10;;;0.70;;
72117;SDS011;59992;47.490;8.736;2023-09-19T09:29:42;1.30;;;0.60;;
72117;SDS011;59992;47.490;8.736;2023-09-19T09:32:36;1.30;;;0.70;;
72117;SDS011;59992;47.490;8.736;2023-09-19T09:35:26;2.20;;;0.80;;
72117;SDS011;59992;47.490;8.736;2023-09-19T09:38:16;2.40;;;0.80;;
72117;SDS011;59992;47.490;8.736;2023-09-19T09:41:07;1.30;;;0.60;;
72117;SDS011;59992;47.490;8.736;2023-09-19T09:44:05;2.00;;;0.70;;
72117;SDS011;59992;47.490;8.736;2023-09-19T09:47:04;2.20;;;0.70;;
72117;SDS011;59992;47.490;8.736;2023-09-19T09:50:12;1.70;;;0.90;;
72117;SDS011;59992;47.490;8.736;2023-09-19T09:53:05;4.20;;;0.70;;
72117;SDS011;59992;47.490;8.736;2023-09-19T09:56:08;2.30;;;0.80;;
72117;SDS011;59992;47.490;8.736;2023-09-19T09:59:01;1.60;;;0.70;;
72117;SDS011;59992;47.490;8.736;2023-09-19T10:01:52;2.40;;;0.80;;
72117;SDS011;59992;47.490;8.736;2023-09-19T10:04:43;2.30;;;0.70;;
72117;SDS011;59992;47.490;8.736;2023-09-19T10:07:46;2.90;;;0.70;;
72117;SDS011;59992;47.490;8.736;2023-09-19T10:10:39;2.00;;;0.80;;
72117;SDS011;59992;47.490;8.736;2023-09-19T10:13:41;1.30;;;0.60;;
72117;SDS011;59992;47.490;8.736;2023-09-19T10:16:34;1.60;;;0.70;;
72117;SDS011;59992;47.490;8.736;2023-09-19T10:19:29;2.50;;;1.00;;
72117;SDS011;59992;47.490;8.736;2023-09-19T10:22:24;2.50;;;0.90;;
72117;SDS011;59992;47.490;8.736;2023-09-19T10:25:19;2.40;;;1.00;;
72117;SDS011;59992;47.490;8.736;2023-09-19T10:28:10;4.70;;;0.80;;
72117;SDS011;59992;47.490;8.736;2023-09-19T10:31:01;2.70;;;0.90;;
72117;SDS011;59992;47.490;8.736;2023-09-19T10:33:56;3.30;;;0.90;;
72117;SDS011;59992;47.490;8.736;2023-09-19T10:36:48;2.80;;;0.90;;
72117;SDS011;59992;47.490;8.736;2023-09-19T10:39:39;1.50;;;0.80;;
72117;SDS011;59992;47.490;8.736;2023-09-19T10:42:34;2.60;;;1.00;;
72117;SDS011;59992;47.490;8.736;2023-09-19T10:45:29;4.70;;;0.90;;
72117;SDS011;59992;47.490;8.736;2023-09-19T10:48:21;2.40;;;0.80;;
72117;SDS011;59992;47.490;8.736;2023-09-19T10:51:13;1.60;;;0.80;;
72117;SDS011;59992;47.490;8.736;2023-09-19T10:54:07;2.20;;;0.90;;
72117;SDS011;59992;47.490;8.736;2023-09-19T10:57:00;3.30;;;0.80;;
72117;SDS011;59992;47.490;8.736;2023-09-19T11:00:02;2.20;;;0.90;;
72117;SDS011;59992;47.490;8.736;2023-09-19T11:03:18;2.20;;;0.80;;
72117;SDS011;59992;47.490;8.736;2023-09-19T11:06:11;1.70;;;0.80;;
72117;SDS011;59992;47.490;8.736;2023-09-19T11:09:04;1.90;;;0.70;;
72117;SDS011;59992;47.490;8.736;2023-09-19T11:12:04;2.00;;;0.80;;
72117;SDS011;59992;47.490;8.736;2023-09-19T11:14:55;2.40;;;0.80;;
72117;SDS011;59992;47.490;8.736;2023-09-19T11:17:45;1.10;;;0.80;;
72117;SDS011;59992;47.490;8.736;2023-09-19T11:20:37;1.80;;;1.00;;
72117;SDS011;59992;47.490;8.736;2023-09-19T11:23:37;3.30;;;0.90;;
72117;SDS011;59992;47.490;8.736;2023-09-19T11:26:39;1.40;;;0.70;;
72117;SDS011;59992;47.490;8.736;2023-09-19T11:29:34;2.60;;;1.20;;
72117;SDS011;59992;47.490;8.736;2023-09-19T11:36:02;1.80;;;0.70;;
72117;SDS011;59992;47.490;8.736;2023-09-19T11:38:59;2.00;;;0.70;;
72117;SDS011;59992;47.490;8.736;2023-09-19T11:41:56;1.70;;;0.70;;
72117;SDS011;59992;47.490;8.736;2023-09-19T11:44:47;1.70;;;0.70;;
72117;SDS011;59992;47.490;8.736;2023-09-19T11:47:39;1.70;;;0.90;;
72117;SDS011;59992;47.490;8.736;2023-09-19T11:50:30;1.80;;;0.90;;
72117;SDS011;59992;47.490;8.736;2023-09-19T11:53:22;2.10;;;0.80;;
72117;SDS011;59992;47.490;8.736;2023-09-19T11:56:20;1.40;;;0.70;;
72117;SDS011;59992;47.490;8.736;2023-09-19T11:59:11;3.80;;;1.00;;
72117;SDS011;59992;47.490;8.736;2023-09-19T12:02:09;2.30;;;0.70;;
72117;SDS011;59992;47.490;8.736;2023-09-19T12:05:10;1.60;;;0.60;;
72117;SDS011;59992;47.490;8.736;2023-09-19T12:08:02;3.30;;;0.70;;
72117;SDS011;59992;47.490;8.736;2023-09-19T12:10:55;3.00;;;0.80;;
72117;SDS011;59992;47.490;8.736;2023-09-19T12:13:45;2.30;;;1.00;;
72117;SDS011;59992;47.490;8.736;2023-09-19T12:16:36;1.40;;;0.70;;
72117;SDS011;59992;47.490;8.736;2023-09-19T12:19:26;2.40;;;0.90;;
72117;SDS011;59992;47.490;8.736;2023-09-19T12:22:16;2.90;;;0.90;;
72117;SDS011;59992;47.490;8.736;2023-09-19T12:25:07;1.90;;;0.60;;
72117;SDS011;59992;47.490;8.736;2023-09-19T12:27:59;3.70;;;0.70;;
72117;SDS011;59992;47.490;8.736;2023-09-19T12:30:50;2.00;;;0.80;;
72117;SDS011;59992;47.490;8.736;2023-09-19T12:33:42;2.00;;;0.90;;
72117;SDS011;59992;47.490;8.736;2023-09-19T12:36:33;1.40;;;0.80;;
72117;SDS011;59992;47.490;8.736;2023-09-19T12:39:26;1.90;;;0.80;;
72117;SDS011;59992;47.490;8.736;2023-09-19T12:42:17;1.40;;;0.70;;
72117;SDS011;59992;47.490;8.736;2023-09-19T12:45:09;3.00;;;0.80;;
72117;SDS011;59992;47.490;8.736;2023-09-19T12:48:20;3.10;;;1.00;;
72117;SDS011;59992;47.490;8.736;2023-09-19T12:51:16;1.20;;;0.70;;
72117;SDS011;59992;47.490;8.736;2023-09-19T12:54:10;1.40;;;0.70;;
72117;SDS011;59992;47.490;8.736;2023-09-19T12:57:03;1.50;;;0.70;;
72117;SDS011;59992;47.490;8.736;2023-09-19T12:59:53;2.10;;;0.80;;
72117;SDS011;59992;47.490;8.736;2023-09-19T13:06:15;1.80;;;0.80;;
72117;SDS011;59992;47.490;8.736;2023-09-19T13:09:24;1.80;;;0.80;;
72117;SDS011;59992;47.490;8.736;2023-09-19T13:12:38;2.30;;;0.80;;
72117;SDS011;59992;47.490;8.736;2023-09-19T13:15:30;2.60;;;0.80;;
72117;SDS011;59992;47.490;8.736;2023-09-19T13:18:46;2.30;;;1.00;;
72117;SDS011;59992;47.490;8.736;2023-09-19T13:21:40;0.80;;;0.70;;
72117;SDS011;59992;47.490;8.736;2023-09-19T13:24:36;1.80;;;0.80;;
72117;SDS011;59992;47.490;8.736;2023-09-19T13:27:27;3.40;;;0.70;;
72117;SDS011;59992;47.490;8.736;2023-09-19T13:30:18;1.40;;;0.90;;
72117;SDS011;59992;47.490;8.736;2023-09-19T13:33:10;2.20;;;0.80;;
72117;SDS011;59992;47.490;8.736;2023-09-19T13:36:06;2.70;;;0.80;;
72117;SDS011;59992;47.490;8.736;2023-09-19T13:38:57;1.40;;;0.90;;
72117;SDS011;59992;47.490;8.736;2023-09-19T13:41:47;2.60;;;0.90;;
72117;SDS011;59992;47.490;8.736;2023-09-19T13:44:38;1.50;;;0.80;;
72117;SDS011;59992;47.490;8.736;2023-09-19T13:47:29;1.80;;;0.90;;
72117;SDS011;59992;47.490;8.736;2023-09-19T13:50:20;2.70;;;0.70;;
72117;SDS011;59992;47.490;8.736;2023-09-19T13:53:11;1.70;;;0.80;;
72117;SDS011;59992;47.490;8.736;2023-09-19T13:56:02;1.70;;;0.70;;
72117;SDS011;59992;47.490;8.736;2023-09-19T13:58:52;1.30;;;0.70;;
72117;SDS011;59992;47.490;8.736;2023-09-19T14:01:42;3.50;;;0.80;;
72117;SDS011;59992;47.490;8.736;2023-09-19T14:04:34;1.60;;;0.80;;
72117;SDS011;59992;47.490;8.736;2023-09-19T14:07:24;1.70;;;0.90;;
72117;SDS011;59992;47.490;8.736;2023-09-19T14:10:15;1.80;;;0.70;;
72117;SDS011;59992;47.490;8.736;2023-09-19T14:13:05;1.50;;;0.90;;
72117;SDS011;59992;47.490;8.736;2023-09-19T14:15:55;1.80;;;0.80;;
72117;SDS011;59992;47.490;8.736;2023-09-19T14:18:45;1.80;;;0.80;;
72117;SDS011;59992;47.490;8.736;2023-09-19T14:21:35;2.00;;;0.70;;
72117;SDS011;59992;47.490;8.736;2023-09-19T14:24:26;1.10;;;0.70;;
72117;SDS011;59992;47.490;8.736;2023-09-19T14:27:16;1.70;;;0.70;;
72117;SDS011;59992;47.490;8.736;2023-09-19T14:30:08;1.50;;;0.80;;
72117;SDS011;59992;47.490;8.736;2023-09-19T14:32:58;4.90;;;0.80;;
72117;SDS011;59992;47.490;8.736;2023-09-19T14:35:50;1.80;;;0.70;;
72117;SDS011;59992;47.490;8.736;2023-09-19T14:38:40;1.70;;;0.70;;
72117;SDS011;59992;47.490;8.736;2023-09-19T14:41:31;1.70;;;0.80;;
72117;SDS011;59992;47.490;8.736;2023-09-19T14:44:21;3.30;;;0.90;;
72117;SDS011;59992;47.490;8.736;2023-09-19T14:47:12;2.10;;;0.90;;
72117;SDS011;59992;47.490;8.736;2023-09-19T14:50:04;2.10;;;0.80;;
72117;SDS011;59992;47.490;8.736;2023-09-19T14:52:56;1.70;;;0.70;;
72117;SDS011;59992;47.490;8.736;2023-09-19T14:55:49;2.50;;;0.80;;
72117;SDS011;59992;47.490;8.736;2023-09-19T14:58:39;1.20;;;0.70;;
72117;SDS011;59992;47.490;8.736;2023-09-19T15:01:29;2.40;;;0.90;;
72117;SDS011;59992;47.490;8.736;2023-09-19T15:04:20;2.40;;;0.70;;
72117;SDS011;59992;47.490;8.736;2023-09-19T15:07:11;1.30;;;0.50;;
72117;SDS011;59992;47.490;8.736;2023-09-19T15:10:02;2.40;;;0.70;;
72117;SDS011;59992;47.490;8.736;2023-09-19T15:12:54;1.30;;;0.90;;
72117;SDS011;59992;47.490;8.736;2023-09-19T15:15:44;1.80;;;0.90;;
72117;SDS011;59992;47.490;8.736;2023-09-19T15:18:35;1.20;;;0.80;;
72117;SDS011;59992;47.490;8.736;2023-09-19T15:21:26;3.70;;;0.60;;
72117;SDS011;59992;47.490;8.736;2023-09-19T15:24:17;3.30;;;0.80;;
72117;SDS011;59992;47.490;8.736;2023-09-19T15:27:07;2.00;;;0.80;;
72117;SDS011;59992;47.490;8.736;2023-09-19T15:29:58;1.90;;;0.80;;
72117;SDS011;59992;47.490;8.736;2023-09-19T15:32:55;2.60;;;0.90;;
72117;SDS011;59992;47.490;8.736;2023-09-19T15:35:45;3.00;;;0.80;;
72117;SDS011;59992;47.490;8.736;2023-09-19T15:41:47;2.30;;;1.00;;
72117;SDS011;59992;47.490;8.736;2023-09-19T15:44:38;1.90;;;0.70;;
72117;SDS011;59992;47.490;8.736;2023-09-19T15:47:29;1.80;;;0.70;;
72117;SDS011;59992;47.490;8.736;2023-09-19T15:50:19;1.70;;;0.80;;
72117;SDS011;59992;47.490;8.736;2023-09-19T15:53:10;4.60;;;1.00;;
72117;SDS011;59992;47.490;8.736;2023-09-19T15:56:00;1.40;;;0.90;;
72117;SDS011;59992;47.490;8.736;2023-09-19T15:58:55;2.50;;;0.80;;
72117;SDS011;59992;47.490;8.736;2023-09-19T16:01:48;1.10;;;0.70;;
72117;SDS011;59992;47.490;8.736;2023-09-19T16:04:38;2.40;;;0.70;;
72117;SDS011;59992;47.490;8.736;2023-09-19T16:07:31;3.10;;;0.90;;
72117;SDS011;59992;47.490;8.736;2023-09-19T16:10:21;2.60;;;0.90;;
72117;SDS011;59992;47.490;8.736;2023-09-19T16:13:11;1.20;;;0.70;;
72117;SDS011;59992;47.490;8.736;2023-09-19T16:16:01;2.80;;;1.60;;
72117;SDS011;59992;47.490;8.736;2023-09-19T16:18:52;2.40;;;1.20;;
72117;SDS011;59992;47.490;8.736;2023-09-19T16:21:44;1.60;;;0.90;;
72117;SDS011;59992;47.490;8.736;2023-09-19T16:24:35;3.20;;;0.70;;
72117;SDS011;59992;47.490;8.736;2023-09-19T16:27:25;3.00;;;0.90;;
72117;SDS011;59992;47.490;8.736;2023-09-19T16:30:15;1.50;;;0.80;;
72117;SDS011;59992;47.490;8.736;2023-09-19T16:33:05;1.80;;;0.90;;
72117;SDS011;59992;47.490;8.736;2023-09-19T16:35:56;1.70;;;1.00;;
72117;SDS011;59992;47.490;8.736;2023-09-19T16:38:47;2.20;;;0.90;;
72117;SDS011;59992;47.490;8.736;2023-09-19T16:41:37;2.40;;;1.00;;
72117;SDS011;59992;47.490;8.736;2023-09-19T16:44:28;2.10;;;1.00;;
72117;SDS011;59992;47.490;8.736;2023-09-19T16:47:20;1.50;;;0.80;;
72117;SDS011;59992;47.490;8.736;2023-09-19T16:50:12;1.30;;;0.90;;
72117;SDS011;59992;47.490;8.736;2023-09-19T16:53:02;2.70;;;0.90;;
72117;SDS011;59992;47.490;8.736;2023-09-19T16:55:52;2.30;;;1.00;;
72117;SDS011;59992;47.490;8.736;2023-09-19T16:58:44;3.80;;;1.20;;
72117;SDS011;59992;47.490;8.736;2023-09-19T17:01:37;1.60;;;0.80;;
72117;SDS011;59992;47.490;8.736;2023-09-19T17:04:27;3.80;;;1.30;;
72117;SDS011;59992;47.490;8.736;2023-09-19T17:07:18;2.10;;;1.10;;
72117;SDS011;59992;47.490;8.736;2023-09-19T17:10:09;2.10;;;1.10;;
72117;SDS011;59992;47.490;8.736;2023-09-19T17:12:59;1.50;;;0.90;;
72117;SDS011;59992;47.490;8.736;2023-09-19T17:16:00;2.60;;;1.10;;
72117;SDS011;59992;47.490;8.736;2023-09-19T17:18:51;1.40;;;0.90;;
72117;SDS011;59992;47.490;8.736;2023-09-19T17:21:43;2.10;;;1.10;;
72117;SDS011;59992;47.490;8.736;2023-09-19T17:24:33;4.00;;;1.10;;
72117;SDS011;59992;47.490;8.736;2023-09-19T17:27:23;1.80;;;1.00;;
72117;SDS011;59992;47.490;8.736;2023-09-19T17:30:13;2.30;;;0.90;;